Timeline UpdatesTrip UpdatesNews PostsPvt PostsTravel TipsAdmin PostsConv PostsFollowed PostsChat RequestsBlog PostsPNR Posts

Disclaimer
Search
 
 
Wed Sep 17, 2014 07:01:34 ISTHomeTrainsΣChainsAtlasPNRForumGalleryNewsFAQTripsMembersLoginFeedback
No Recent News for this Train
Other Trains in the News **new
Latest...
Temporarily Cancelled between Bandikui-Tundla from 1/11/13 to 15/12/13 due to power and traffic block between Agra City-Yamuna Bridge route
Mon Nov 25, 2013 (09:15AM)
⇐ Return Journey: Train# 54462

54461/Bandikui Bareilly Passenger (UnReserved)

Time-Table HAS CHANGED.
Sep 03 (4:42PM)
Change Departure Station:
Change Arrival Station:
Post a Train Travel TipPost a Train Travel Tip **new
Post a Comment/Question/Picture/VideoPost a Comment/Question/Picture/Video
Pantry/Catering
???
Loco/Rake Reversals
TDL/Tundla Junction (5);
RSA - Rake Sharing
Rake/Coach Composition
Loco
News    PNR    Forum    Time-Table    Availability    Fare Chart    Map    Arr/Dep History    Trips    Gallery    ΣChains    X/O    Timeline    
Travel Time: 2h 59m    19 halts    Distance: 140 km    Avg Speed: 46 km/hr
Type: Passenger
Zone: NR/Northern
Departs @ 14:50
Platform# ???
SMTWTFS
Bandikui Junction/BKI 
Arrives @ 17:49
Platform# 1
SMTWTFS
Bichpuri/BCP 

19 halts. 19 intermediate Stations between Bandikui Junction and Bichpuri

Show ALL intermediate Stations  Show Old Time-Table

#CodeStation NameX/OArrivesAvgDepartsAvgHaltPFDay#KmSpeedElevZoneAddress
1BKI»Bandikui Junction (6)»  -14:50---10.0101283mNWRBandikui, Rajasthan
2SHGNShri Ghasinagar (1)  14:59-15:00-1m1115.242263mNCRBandikui, Rajasthan
3BWBiwai (1)  15:06-15:07-1m1119.436256mNCRBandikui, Rajasthan
4BJRABhajera (1)  15:14-15:15-1m1123.510253mNCRMandawar, Rajasthan
5KPOKaranpura (1)X  15:20-15:21-1m1124.426252mNCRBandikui, Rajasthan
6BUDABhuda (1)  15:27-15:28-1m1127.049253mNCRKheril, Rajasthan
7MURDMandawar Mahwa Road (1)  15:34-15:35-1m1131.955242mNCRMandawar, Rajasthan
8GOSGhosrana (1)  15:43-15:44-1m1139.254230mNCRKheril, Rajasthan
9DTFDantla (1)  15:51-15:52-1m1145.648224mNCRDantia, Rajasthan
10KLKherli (1)  16:00-16:01-1m1152.054219mNCRKherli, Rajasthan
11TBLTarchhera Baraoliran (1)  16:10-16:11-1m1160.162210mNCRTalchherra, Rajasthan
12NBINadbai (1)  16:19-16:20-1m1168.341203mNCRNadbai, Rajasthan
13PPEAPaprera (1)  16:33 16:35-16:34 16:36-1m1178.549187mNCRNadbai, Rajasthan
14HKHelak (1)  16:41 16:44-16:42 16:45-1m1185.059183mNCRBharatpur, Rajasthan
15BTEBharatpur Junction (5)  16:54 16:57-16:59-5 2m--196.867174mWCRBharatpur, Rajasthan
16NHBNoh Bachhamdi (1)  17:07 17:05-17:08 17:06-1m11103.556174mNCRBharatpur, Rajasthan
17IKIkran (1)  17:14 17:12-17:15 17:13-1m11109.153171mNCRBharatpur, Rajasthan
18CIKChiksana (1)X  17:22 17:19-17:23 17:20-1m11114.458177mNCRBharatpur, Rajasthan
19AHAchhnera Junction (3)X  17:35 17:30-17:40 17:32-5 2m--1124.247170mNCRAgra District, Uttar Pradesh
20RAIRaibha (1)X  17:46 17:38-17:47 17:39-1m11128.865171mNCRBichpuri, Uttar Pradesh
21BCP•Bichpuri (1)•X  17:59 17:49-18:00 17:50-1m11139.713176mNCRAgra District, Uttar Pradesh
22IDHIdgah Agra Junction (3)XO  18:31 18:28-18:33 18:30-2m--1148.04168mNCRAgra, Uttar Pradesh
23AFAgra Fort (3)XO  18:55 19:05-19:00 19:15-5 10m21150.217170mNCRRakabganj, Uttar Pradesh
24JABYamuna Bridge Agra (3)  19:19 19:24-19:20 19:25-1m11152.731168mNCRAgra, Uttar Pradesh
25CHLRChhalesar (2)X  19:31 19:36-19:32 19:37-1m--1158.422166mNCRDistrict Agra, Uttar Pradesh
26KBPKuberpur (2)  19:40 19:48-19:41 19:49-1m--1162.427170mNCRNational Highway 2, Uttar Pradesh
27ETUEEtmadpur (3)XO  19:52 20:04-19:53 20:05-1m--1169.34166mNCREtmadpur, Uttar Pradesh
28TDLTundla Junction (5)X20:25 21:10-21:10 21:50-45 40m--1173.137167mNCRDistt.Firozabad, Uttar Pradesh
29MTIMitawali (1)X  21:19 22:01-21:20 22:02-1m11179.959169mNCRMitawali, Uttar Pradesh
30BRNBarhan JunctionX  21:27 22:10-21:28 22:11-1m--1187.858173mNCRJN Point-Tundle/Aligarh/Etah, Uttar Pradesh
31CMRChamrola (1)  21:34 22:18-21:35 22:19-1m11194.655174mNCRMDR 106W, Uttar Pradesh
32JLSJalesar Road (1)X  21:41 22:26-21:42 22:27-1m11201.073172mNCRMDR 106W, Uttar Pradesh
33PORAPora (2)X  21:50 22:35-21:51 22:36-1m--1210.745179mNCRHathras, Uttar Pradesh
34HRSHathras Junction (3)X  22:28 22:50-22:30 22:55-2 5m--1221.167183mNCRMahamaya Nagar(05722-242803), Uttar Pradesh
35SNSSasni (3)  22:54 23:03-22:55 23:04-1m--1230.063185mNCRSasni, Uttar Pradesh
36MXKMandrak (2)X  23:14 23:11-23:15 23:12-1m--1237.468190mNCRNational Highway 93, Uttar Pradesh
37DAQDaud Khan (3)X  23:29 23:18-23:30 23:19-1m--1244.216189mNCRNational Highway 91, Uttar Pradesh
38ALJNAligarh Junction (4)  23:45-23:55-10m31251.238192mNCRAligarh, Uttar Pradesh
39MZGIManzurgarhi (2)  00:08 00:09-00:10-2 1m--2260.229188mNCRAligarh, Uttar Pradesh
40HGJHarduaganj (1)  00:18 00:19-00:20-2 1m12264.636195mNCRAligarh, Uttar Pradesh
41AURAtrauli Road (1)  00:35 00:46-00:37 00:48-2m12280.235190mNRDibai, Uttar Pradesh
42DIBDibai (2)X  00:51 01:10-00:53 01:12-2m--2293.122190mNRDibai, Uttar Pradesh
43RGRajghat Narora (1)  01:03 01:31-01:05 01:33-2m12300.025191mNRBabrala, Uttar Pradesh
44BBABabrala (1)  01:24 01:47-01:27 01:50-3m12305.964186mNRBabrala, Uttar Pradesh
45BJBahjoi  01:58 02:15-02:00 02:17-2m--2332.736194mNRBahjoi, Uttar Pradesh
46CHChandausi Junction (3)XO  02:30 02:45-03:15 03:45-45 60m--2349.446193mNRChandausi, Uttar Pradesh
47AFRAsafpur  03:41 04:03-03:43 04:05-2m--2363.149186mNRDist. Badaun, Uttar Pradesh
48DUBDabtara (2)  03:58 04:18-04:00 04:20-2m22373.613183mNRBisauli, Uttar Pradesh
49KEGKarengiXO  04:08 04:45-04:10 04:47-2m--2378.919183mNRKarengi, Uttar Pradesh
50RBKReoti B Khera (1)  04:19 05:09-04:20 05:10-1m12385.949177mNRReoti B Khera, Uttar Pradesh
51AOAonla (2)X  04:27 05:17-04:32 05:19-5 2m--2391.623176mNRDist. Bareilly, Uttar Pradesh
52NSUNisui  04:44 05:36-04:46 05:37-2 1m--2398.235167mNRAonla- Bareilly Link Rd, Uttar Pradesh
53BTGBasharatGanj  04:53 05:45-04:55 05:47-2m--2402.942167mNRBareilly, Uttar Pradesh
54RGBRamganga  05:08 06:00-05:10 06:02-2m--2412.014170mNRState Highway 33, Uttar Pradesh
55BEBareilly Junction (4)  06:20 06:30--32418.5-174mNRBareilly, Uttar Pradesh
Scroll to Top
Scroll to Bottom